Salmon Arm, British Columbia

7:19 PM PDT on August 31, 2015 (GMT -0700)
Golf Course Drive | | Change Station
CLOSE
Current Station
Personal Weather Station
Location: Blind Bay, BRITISH COLUMBIA
Elevation: 1398 ft
Nearby Weather Stations

Elev 1398 ft 50.86 °N, 119.36 °W | Updated 9 minutes ago

Rain
Rain
56.1 °F
Feels Like 56.1 °F
N
0.0
Wind Variable Wind from WNW
Gusts 2.0 mph

Today
High -- | Low -- °F
--% Chance of Precip.
Yesterday
High -- | Low -- °F
Precip. -- in
6:09 AM 7:44 PM
Waning Gibbous, 92% visible
Pressure 29.75 in
Visibility 9.0 miles
Clouds Few 6000 ft
Dew Point 53 °F
Humidity 90%
Rainfall 0.09 in
Snow Depth Not available.
UV 0 out of 12
Pollen Not available.
Air Quality Not available.
Flu Activity Not available.
METAR CYLW 010200Z AUTO 28004KT 200V310 9SM FEW060 16/10 A2975 RMK SLP073 DENSITY ALT 2000FT
Pressure 29.75 in
Visibility 9.0 miles
Clouds Few 6000 ft
Dew Point 53 °F
Humidity 90%
Rainfall 0.09 in
Snow Depth Not available.
UV 0 out of 12
Pollen Not available.
Air Quality Not available.
Flu Activity Not available.
METAR CYLW 010200Z AUTO 28004KT 200V310 9SM FEW060 16/10 A2975 RMK SLP073 DENSITY ALT 2000FT

10-Day Weather Forecast

×

Almanac

Astronomy

Aug. 31, 2015 Rise Set
Actual Time
Civil Twilight
Nautical Twilight
Astronomical Twilight
Moon
Length of Visible Light
Length of Day
Tomorrow will be .
, % of the Moon is Illuminated

Today's Extremes

Country Highs Country Lows

Community

WunderPhotos

Upload Photos

1,851,443 photos uploaded!

WunderBlogs® & News

Nearby

Air Quality

  Air Quality AQ Index Pollutant
Not available.

Snow Depth

Station Depth Elevation

Earthquake Activity

City Distance Mag. Time & Date
Minimum magnitude displayed is 2.5.

Coastal Water Temperatures

Place Temperature

Stations

Nearby Weather Stations

Station Location Temp. Windchill Dew Point Humidity Wind Precip. Elev Updated Type